Pagrindinis puslapis
METAR-TAF:

METAR-TAF

Oro uostai :

Dušanbė, Tadžikija

platuma: 38-33N, ilguma: 068-47E, Aukštis: 803 m

Dabartinis oras

Ataskaita buvo paskelbta 27 minutes, ne 05:00 UTC
Vėjas 2 kt nuo kintamojo kryptimis
Temperatūra 25°C
Drėgmė 28%
Slėgis 1017 hPa
Matomumas 10 km arba daugiau

METAR: UTDD 180500Z VRB01MPS 9999 NSC 25/05 Q1017 R09/D NOSIG RMK QFE694/0926

Laikas: 10:27 (05:27 UTC)

Prognozė

Ataskaita buvo paskelbta 2 valandos ir 27 minutes, ne 03:00 UTC
Prognozė galioja nuo 18 metu 04 UTC su 18 metu 16 UTC
Vėjas 4 kt nuo kintamojo kryptimis
Matomumas: 6000 m
Mažai debesys ne aukštis 6600 ft
Išsisklaidę debesys ne aukštis 10000 ft
Laikinai
nuo 18 metu 07 UTC su 18 metu 16 UTC
Vėjas 14 kt iš Vakarų

TAF: UTDD 180300Z 1804/1816 VRB02MPS 6000 FEW066 SCT100 TEMPO 1807/1816 27007MPS

Orai ataskaitas ir orų prognozės (METAR, TAF).

turimą stotys yra geltonos ir raudonos taškus žemėlapyje.

Perkelti pele per norėdami pamatyti stoties vardą.

Tada spustelėkite, norėdami matyti oro stebėjimo ir prognozės.

Norėdami pakeisti žemėlapį: spustelėkite ant žalios mygtukų su juodo kryžiaus žemyn,; žalią mygtuką su brūkšneliu, jei norite nutolinti; arba žalių rodyklių gretimoms žemėlapius.


METAR-TAF: